sensor_id;sensor_type;location;lat;lon;timestamp;P1;durP1;ratioP1;P2;durP2;ratioP2
51636;SDS011;37713;53.254;6.460;2023-02-18T00:00:25;17.48;;;2.33;;
51636;SDS011;37713;53.254;6.460;2023-02-18T00:02:52;19.50;;;2.72;;
51636;SDS011;37713;53.254;6.460;2023-02-18T00:05:19;19.50;;;2.95;;
51636;SDS011;37713;53.254;6.460;2023-02-18T00:07:45;12.40;;;2.40;;
51636;SDS011;37713;53.254;6.460;2023-02-18T00:10:12;19.50;;;2.15;;
51636;SDS011;37713;53.254;6.460;2023-02-18T00:12:39;15.07;;;2.42;;
51636;SDS011;37713;53.254;6.460;2023-02-18T00:15:05;15.73;;;2.60;;
51636;SDS011;37713;53.254;6.460;2023-02-18T00:17:32;12.00;;;2.30;;
51636;SDS011;37713;53.254;6.460;2023-02-18T00:19:57;15.43;;;2.20;;
51636;SDS011;37713;53.254;6.460;2023-02-18T00:22:23;20.42;;;3.58;;
51636;SDS011;37713;53.254;6.460;2023-02-18T00:24:50;15.75;;;2.30;;
51636;SDS011;37713;53.254;6.460;2023-02-18T00:27:15;14.40;;;2.42;;
51636;SDS011;37713;53.254;6.460;2023-02-18T00:29:41;11.68;;;2.55;;
51636;SDS011;37713;53.254;6.460;2023-02-18T00:32:07;13.73;;;2.75;;
51636;SDS011;37713;53.254;6.460;2023-02-18T00:34:33;12.10;;;2.03;;
51636;SDS011;37713;53.254;6.460;2023-02-18T00:36:59;17.05;;;2.38;;
51636;SDS011;37713;53.254;6.460;2023-02-18T00:39:24;12.63;;;2.00;;
51636;SDS011;37713;53.254;6.460;2023-02-18T00:41:50;13.13;;;2.10;;
51636;SDS011;37713;53.254;6.460;2023-02-18T00:44:16;17.42;;;2.55;;
51636;SDS011;37713;53.254;6.460;2023-02-18T00:46:42;22.23;;;2.42;;
51636;SDS011;37713;53.254;6.460;2023-02-18T00:49:08;15.85;;;1.85;;
51636;SDS011;37713;53.254;6.460;2023-02-18T00:51:34;16.73;;;2.75;;
51636;SDS011;37713;53.254;6.460;2023-02-18T00:54:00;19.08;;;2.20;;
51636;SDS011;37713;53.254;6.460;2023-02-18T00:56:26;18.30;;;2.50;;
51636;SDS011;37713;53.254;6.460;2023-02-18T00:58:52;15.00;;;3.08;;
51636;SDS011;37713;53.254;6.460;2023-02-18T01:01:18;15.80;;;2.42;;
51636;SDS011;37713;53.254;6.460;2023-02-18T01:03:44;15.50;;;2.33;;
51636;SDS011;37713;53.254;6.460;2023-02-18T01:06:11;15.77;;;2.00;;
51636;SDS011;37713;53.254;6.460;2023-02-18T01:08:37;17.50;;;2.53;;
51636;SDS011;37713;53.254;6.460;2023-02-18T01:11:04;14.10;;;2.40;;
51636;SDS011;37713;53.254;6.460;2023-02-18T01:13:32;15.75;;;2.25;;
51636;SDS011;37713;53.254;6.460;2023-02-18T01:15:57;16.13;;;2.65;;
51636;SDS011;37713;53.254;6.460;2023-02-18T01:18:24;18.52;;;3.65;;
51636;SDS011;37713;53.254;6.460;2023-02-18T01:20:51;19.23;;;2.70;;
51636;SDS011;37713;53.254;6.460;2023-02-18T01:23:17;14.55;;;2.13;;
51636;SDS011;37713;53.254;6.460;2023-02-18T01:25:43;14.32;;;2.10;;
51636;SDS011;37713;53.254;6.460;2023-02-18T01:28:10;15.82;;;2.65;;
51636;SDS011;37713;53.254;6.460;2023-02-18T01:30:37;13.52;;;2.70;;
51636;SDS011;37713;53.254;6.460;2023-02-18T01:33:03;15.55;;;2.55;;
51636;SDS011;37713;53.254;6.460;2023-02-18T01:35:29;16.65;;;2.60;;
51636;SDS011;37713;53.254;6.460;2023-02-18T01:37:55;15.30;;;2.63;;
51636;SDS011;37713;53.254;6.460;2023-02-18T01:40:22;17.38;;;2.38;;
51636;SDS011;37713;53.254;6.460;2023-02-18T01:42:50;20.63;;;2.95;;
51636;SDS011;37713;53.254;6.460;2023-02-18T01:50:29;17.88;;;3.60;;
51636;SDS011;37713;53.254;6.460;2023-02-18T01:52:57;15.88;;;2.92;;
51636;SDS011;37713;53.254;6.460;2023-02-18T01:55:24;15.77;;;2.80;;
51636;SDS011;37713;53.254;6.460;2023-02-18T01:57:51;15.70;;;2.75;;
51636;SDS011;37713;53.254;6.460;2023-02-18T02:00:17;17.73;;;2.90;;
51636;SDS011;37713;53.254;6.460;2023-02-18T02:02:46;18.48;;;2.83;;
51636;SDS011;37713;53.254;6.460;2023-02-18T02:05:13;12.93;;;3.00;;
51636;SDS011;37713;53.254;6.460;2023-02-18T02:07:40;14.95;;;2.72;;
51636;SDS011;37713;53.254;6.460;2023-02-18T02:10:07;18.08;;;2.95;;
51636;SDS011;37713;53.254;6.460;2023-02-18T02:46:02;20.15;;;2.90;;
51636;SDS011;37713;53.254;6.460;2023-02-18T02:51:27;16.23;;;3.22;;
51636;SDS011;37713;53.254;6.460;2023-02-18T02:54:15;14.50;;;3.00;;
51636;SDS011;37713;53.254;6.460;2023-02-18T02:56:45;16.50;;;3.10;;
51636;SDS011;37713;53.254;6.460;2023-02-18T02:59:14;15.25;;;3.10;;
51636;SDS011;37713;53.254;6.460;2023-02-18T03:12:22;18.45;;;3.53;;
51636;SDS011;37713;53.254;6.460;2023-02-18T03:15:01;13.57;;;3.13;;
51636;SDS011;37713;53.254;6.460;2023-02-18T03:18:00;17.42;;;3.15;;
51636;SDS011;37713;53.254;6.460;2023-02-18T03:20:34;15.10;;;3.35;;
51636;SDS011;37713;53.254;6.460;2023-02-18T03:23:06;16.98;;;3.58;;
51636;SDS011;37713;53.254;6.460;2023-02-18T03:25:36;18.35;;;3.28;;
51636;SDS011;37713;53.254;6.460;2023-02-18T03:28:05;18.38;;;3.72;;
51636;SDS011;37713;53.254;6.460;2023-02-18T03:30:42;15.88;;;3.70;;
51636;SDS011;37713;53.254;6.460;2023-02-18T03:33:16;14.93;;;3.80;;
51636;SDS011;37713;53.254;6.460;2023-02-18T03:35:47;12.27;;;3.20;;
51636;SDS011;37713;53.254;6.460;2023-02-18T03:38:34;14.55;;;3.58;;
51636;SDS011;37713;53.254;6.460;2023-02-18T03:41:14;13.00;;;3.28;;
51636;SDS011;37713;53.254;6.460;2023-02-18T03:43:47;14.32;;;3.08;;
51636;SDS011;37713;53.254;6.460;2023-02-18T03:46:14;14.65;;;3.85;;
51636;SDS011;37713;53.254;6.460;2023-02-18T03:48:40;13.95;;;4.13;;
51636;SDS011;37713;53.254;6.460;2023-02-18T03:51:06;12.48;;;3.75;;
51636;SDS011;37713;53.254;6.460;2023-02-18T03:53:32;15.13;;;3.72;;
51636;SDS011;37713;53.254;6.460;2023-02-18T03:55:58;16.95;;;4.00;;
51636;SDS011;37713;53.254;6.460;2023-02-18T03:58:23;14.55;;;3.50;;
51636;SDS011;37713;53.254;6.460;2023-02-18T04:00:49;12.40;;;3.47;;
51636;SDS011;37713;53.254;6.460;2023-02-18T04:03:15;13.05;;;3.85;;
51636;SDS011;37713;53.254;6.460;2023-02-18T04:05:41;20.52;;;4.65;;
51636;SDS011;37713;53.254;6.460;2023-02-18T04:08:06;17.35;;;4.07;;
51636;SDS011;37713;53.254;6.460;2023-02-18T04:10:32;14.60;;;3.97;;
51636;SDS011;37713;53.254;6.460;2023-02-18T04:12:58;11.98;;;3.65;;
51636;SDS011;37713;53.254;6.460;2023-02-18T04:15:24;13.27;;;3.83;;
51636;SDS011;37713;53.254;6.460;2023-02-18T04:17:50;14.32;;;4.20;;
51636;SDS011;37713;53.254;6.460;2023-02-18T04:20:16;17.15;;;3.35;;
51636;SDS011;37713;53.254;6.460;2023-02-18T04:22:42;12.77;;;3.70;;
51636;SDS011;37713;53.254;6.460;2023-02-18T04:25:08;12.73;;;3.80;;
51636;SDS011;37713;53.254;6.460;2023-02-18T04:27:34;11.35;;;3.97;;
51636;SDS011;37713;53.254;6.460;2023-02-18T04:30:00;12.80;;;3.28;;
51636;SDS011;37713;53.254;6.460;2023-02-18T04:32:25;12.80;;;4.07;;
51636;SDS011;37713;53.254;6.460;2023-02-18T04:34:51;15.63;;;3.38;;
51636;SDS011;37713;53.254;6.460;2023-02-18T04:37:17;12.20;;;3.30;;
51636;SDS011;37713;53.254;6.460;2023-02-18T04:39:43;14.35;;;3.92;;
51636;SDS011;37713;53.254;6.460;2023-02-18T04:42:09;18.65;;;3.67;;
51636;SDS011;37713;53.254;6.460;2023-02-18T04:44:35;19.55;;;4.20;;
51636;SDS011;37713;53.254;6.460;2023-02-18T04:47:02;12.38;;;3.50;;
51636;SDS011;37713;53.254;6.460;2023-02-18T04:49:29;15.20;;;4.57;;
51636;SDS011;37713;53.254;6.460;2023-02-18T04:51:55;21.10;;;4.70;;
51636;SDS011;37713;53.254;6.460;2023-02-18T04:54:21;15.25;;;5.22;;
51636;SDS011;37713;53.254;6.460;2023-02-18T04:56:47;18.48;;;5.90;;
51636;SDS011;37713;53.254;6.460;2023-02-18T04:59:12;18.17;;;6.05;;
51636;SDS011;37713;53.254;6.460;2023-02-18T05:01:39;22.02;;;6.85;;
51636;SDS011;37713;53.254;6.460;2023-02-18T05:04:04;18.15;;;6.07;;
51636;SDS011;37713;53.254;6.460;2023-02-18T05:06:30;18.85;;;7.45;;
51636;SDS011;37713;53.254;6.460;2023-02-18T05:08:56;21.30;;;8.07;;
51636;SDS011;37713;53.254;6.460;2023-02-18T05:11:22;25.75;;;9.15;;
51636;SDS011;37713;53.254;6.460;2023-02-18T05:13:47;19.50;;;10.27;;
51636;SDS011;37713;53.254;6.460;2023-02-18T05:16:13;24.13;;;10.88;;
51636;SDS011;37713;53.254;6.460;2023-02-18T05:18:39;28.92;;;10.85;;
51636;SDS011;37713;53.254;6.460;2023-02-18T05:21:05;28.83;;;12.65;;
51636;SDS011;37713;53.254;6.460;2023-02-18T05:23:31;28.25;;;12.52;;
51636;SDS011;37713;53.254;6.460;2023-02-18T05:25:56;30.75;;;13.63;;
51636;SDS011;37713;53.254;6.460;2023-02-18T05:28:22;36.70;;;14.40;;
51636;SDS011;37713;53.254;6.460;2023-02-18T05:30:48;31.52;;;13.65;;
51636;SDS011;37713;53.254;6.460;2023-02-18T05:33:14;36.67;;;14.45;;
51636;SDS011;37713;53.254;6.460;2023-02-18T05:35:40;31.02;;;15.15;;
51636;SDS011;37713;53.254;6.460;2023-02-18T05:38:05;35.53;;;15.68;;
51636;SDS011;37713;53.254;6.460;2023-02-18T05:40:31;35.42;;;16.25;;
51636;SDS011;37713;53.254;6.460;2023-02-18T05:42:57;33.72;;;17.15;;
51636;SDS011;37713;53.254;6.460;2023-02-18T05:45:24;36.40;;;16.77;;
51636;SDS011;37713;53.254;6.460;2023-02-18T05:47:50;36.63;;;15.88;;
51636;SDS011;37713;53.254;6.460;2023-02-18T05:50:16;29.10;;;16.20;;
51636;SDS011;37713;53.254;6.460;2023-02-18T05:52:42;34.10;;;16.35;;
51636;SDS011;37713;53.254;6.460;2023-02-18T05:55:07;30.60;;;16.63;;
51636;SDS011;37713;53.254;6.460;2023-02-18T05:57:33;32.65;;;15.07;;
51636;SDS011;37713;53.254;6.460;2023-02-18T05:59:59;32.38;;;14.48;;
51636;SDS011;37713;53.254;6.460;2023-02-18T06:02:25;30.13;;;14.15;;
51636;SDS011;37713;53.254;6.460;2023-02-18T06:04:50;27.50;;;14.07;;
51636;SDS011;37713;53.254;6.460;2023-02-18T06:07:16;28.23;;;14.30;;
51636;SDS011;37713;53.254;6.460;2023-02-18T06:09:44;24.38;;;12.60;;
51636;SDS011;37713;53.254;6.460;2023-02-18T06:12:10;26.33;;;13.20;;
51636;SDS011;37713;53.254;6.460;2023-02-18T06:14:36;28.05;;;13.02;;
51636;SDS011;37713;53.254;6.460;2023-02-18T06:17:06;24.35;;;12.32;;
51636;SDS011;37713;53.254;6.460;2023-02-18T06:19:33;25.73;;;11.70;;
51636;SDS011;37713;53.254;6.460;2023-02-18T06:21:59;20.38;;;10.57;;
51636;SDS011;37713;53.254;6.460;2023-02-18T06:24:24;20.67;;;10.73;;
51636;SDS011;37713;53.254;6.460;2023-02-18T06:26:50;22.50;;;10.45;;
51636;SDS011;37713;53.254;6.460;2023-02-18T06:29:16;20.67;;;9.43;;
51636;SDS011;37713;53.254;6.460;2023-02-18T06:31:42;21.98;;;8.85;;
51636;SDS011;37713;53.254;6.460;2023-02-18T06:34:08;18.13;;;8.60;;
51636;SDS011;37713;53.254;6.460;2023-02-18T06:36:33;17.02;;;7.93;;
51636;SDS011;37713;53.254;6.460;2023-02-18T06:39:01;17.25;;;8.15;;
51636;SDS011;37713;53.254;6.460;2023-02-18T06:41:28;15.75;;;8.57;;
51636;SDS011;37713;53.254;6.460;2023-02-18T06:43:54;17.02;;;8.38;;
51636;SDS011;37713;53.254;6.460;2023-02-18T06:46:20;15.95;;;7.57;;
51636;SDS011;37713;53.254;6.460;2023-02-18T06:48:45;16.85;;;8.15;;
51636;SDS011;37713;53.254;6.460;2023-02-18T06:51:11;16.70;;;7.80;;
51636;SDS011;37713;53.254;6.460;2023-02-18T06:53:37;17.02;;;8.00;;
51636;SDS011;37713;53.254;6.460;2023-02-18T06:56:03;15.57;;;7.20;;
51636;SDS011;37713;53.254;6.460;2023-02-18T06:58:29;15.10;;;7.55;;
51636;SDS011;37713;53.254;6.460;2023-02-18T07:00:54;17.27;;;8.40;;
51636;SDS011;37713;53.254;6.460;2023-02-18T07:03:20;17.33;;;9.07;;
51636;SDS011;37713;53.254;6.460;2023-02-18T07:05:46;22.70;;;10.30;;
51636;SDS011;37713;53.254;6.460;2023-02-18T07:08:12;22.75;;;11.90;;
51636;SDS011;37713;53.254;6.460;2023-02-18T07:10:38;27.60;;;12.55;;
51636;SDS011;37713;53.254;6.460;2023-02-18T07:13:04;27.90;;;12.95;;
51636;SDS011;37713;53.254;6.460;2023-02-18T07:15:30;28.38;;;13.48;;
51636;SDS011;37713;53.254;6.460;2023-02-18T07:17:55;31.35;;;14.48;;
51636;SDS011;37713;53.254;6.460;2023-02-18T07:20:21;28.98;;;13.52;;
51636;SDS011;37713;53.254;6.460;2023-02-18T07:22:48;30.27;;;13.57;;
51636;SDS011;37713;53.254;6.460;2023-02-18T07:25:14;30.88;;;14.90;;
51636;SDS011;37713;53.254;6.460;2023-02-18T07:27:40;30.15;;;13.88;;
51636;SDS011;37713;53.254;6.460;2023-02-18T07:30:06;23.98;;;12.60;;
51636;SDS011;37713;53.254;6.460;2023-02-18T07:32:32;23.92;;;13.07;;
51636;SDS011;37713;53.254;6.460;2023-02-18T07:34:58;26.83;;;11.77;;
51636;SDS011;37713;53.254;6.460;2023-02-18T07:37:24;24.70;;;11.13;;
51636;SDS011;37713;53.254;6.460;2023-02-18T07:39:50;24.77;;;11.68;;
51636;SDS011;37713;53.254;6.460;2023-02-18T07:42:16;27.65;;;11.13;;
51636;SDS011;37713;53.254;6.460;2023-02-18T07:44:43;26.98;;;10.02;;
51636;SDS011;37713;53.254;6.460;2023-02-18T07:47:09;22.08;;;9.82;;
51636;SDS011;37713;53.254;6.460;2023-02-18T07:49:38;20.23;;;9.70;;
51636;SDS011;37713;53.254;6.460;2023-02-18T07:52:05;20.65;;;8.93;;
51636;SDS011;37713;53.254;6.460;2023-02-18T07:54:31;20.58;;;9.02;;
51636;SDS011;37713;53.254;6.460;2023-02-18T07:56:56;17.20;;;8.95;;
51636;SDS011;37713;53.254;6.460;2023-02-18T07:59:22;22.92;;;9.98;;
51636;SDS011;37713;53.254;6.460;2023-02-18T08:01:48;22.38;;;9.20;;
51636;SDS011;37713;53.254;6.460;2023-02-18T08:04:14;20.15;;;8.77;;
51636;SDS011;37713;53.254;6.460;2023-02-18T08:06:41;17.10;;;8.38;;
51636;SDS011;37713;53.254;6.460;2023-02-18T08:11:36;19.05;;;8.88;;
51636;SDS011;37713;53.254;6.460;2023-02-18T08:14:02;18.48;;;7.20;;
51636;SDS011;37713;53.254;6.460;2023-02-18T08:16:28;15.57;;;7.75;;
51636;SDS011;37713;53.254;6.460;2023-02-18T08:18:54;17.58;;;7.88;;
51636;SDS011;37713;53.254;6.460;2023-02-18T08:21:21;16.88;;;6.80;;
51636;SDS011;37713;53.254;6.460;2023-02-18T08:23:48;17.85;;;6.35;;
51636;SDS011;37713;53.254;6.460;2023-02-18T08:26:14;17.35;;;6.53;;
51636;SDS011;37713;53.254;6.460;2023-02-18T08:28:41;17.00;;;5.80;;
51636;SDS011;37713;53.254;6.460;2023-02-18T08:31:12;18.83;;;5.57;;
51636;SDS011;37713;53.254;6.460;2023-02-18T08:33:41;18.70;;;6.82;;
51636;SDS011;37713;53.254;6.460;2023-02-18T08:36:07;13.45;;;4.10;;
51636;SDS011;37713;53.254;6.460;2023-02-18T08:38:34;12.57;;;4.28;;
51636;SDS011;37713;53.254;6.460;2023-02-18T08:41:01;13.25;;;3.72;;
51636;SDS011;37713;53.254;6.460;2023-02-18T08:43:28;14.30;;;3.58;;
51636;SDS011;37713;53.254;6.460;2023-02-18T08:45:54;13.00;;;3.67;;
51636;SDS011;37713;53.254;6.460;2023-02-18T08:48:22;16.35;;;3.55;;
51636;SDS011;37713;53.254;6.460;2023-02-18T08:50:48;12.85;;;2.83;;
51636;SDS011;37713;53.254;6.460;2023-02-18T08:53:14;14.05;;;3.28;;
51636;SDS011;37713;53.254;6.460;2023-02-18T08:55:40;12.63;;;2.90;;
51636;SDS011;37713;53.254;6.460;2023-02-18T08:58:06;10.52;;;2.40;;
51636;SDS011;37713;53.254;6.460;2023-02-18T09:00:32;9.95;;;2.67;;
51636;SDS011;37713;53.254;6.460;2023-02-18T09:02:59;11.88;;;2.80;;
51636;SDS011;37713;53.254;6.460;2023-02-18T09:05:25;9.75;;;2.10;;
51636;SDS011;37713;53.254;6.460;2023-02-18T09:07:51;10.70;;;2.80;;
51636;SDS011;37713;53.254;6.460;2023-02-18T09:10:17;13.05;;;2.67;;
51636;SDS011;37713;53.254;6.460;2023-02-18T09:12:42;11.75;;;2.70;;
51636;SDS011;37713;53.254;6.460;2023-02-18T09:15:08;10.90;;;2.58;;
51636;SDS011;37713;53.254;6.460;2023-02-18T09:17:34;10.75;;;2.95;;
51636;SDS011;37713;53.254;6.460;2023-02-18T09:20:00;11.52;;;2.60;;
51636;SDS011;37713;53.254;6.460;2023-02-18T09:22:26;14.05;;;3.22;;
51636;SDS011;37713;53.254;6.460;2023-02-18T09:24:52;12.18;;;3.33;;
51636;SDS011;37713;53.254;6.460;2023-02-18T09:27:18;11.48;;;2.40;;
51636;SDS011;37713;53.254;6.460;2023-02-18T09:29:44;10.02;;;2.78;;
51636;SDS011;37713;53.254;6.460;2023-02-18T09:32:09;12.52;;;2.67;;
51636;SDS011;37713;53.254;6.460;2023-02-18T09:34:36;10.80;;;2.70;;
51636;SDS011;37713;53.254;6.460;2023-02-18T09:37:02;13.07;;;2.40;;
51636;SDS011;37713;53.254;6.460;2023-02-18T09:39:28;10.25;;;2.42;;
51636;SDS011;37713;53.254;6.460;2023-02-18T09:41:55;10.98;;;2.65;;
51636;SDS011;37713;53.254;6.460;2023-02-18T09:44:48;15.23;;;2.58;;
51636;SDS011;37713;53.254;6.460;2023-02-18T09:47:18;16.40;;;2.67;;
51636;SDS011;37713;53.254;6.460;2023-02-18T09:49:59;14.88;;;2.80;;
51636;SDS011;37713;53.254;6.460;2023-02-18T09:52:31;13.85;;;2.78;;
51636;SDS011;37713;53.254;6.460;2023-02-18T09:55:00;14.03;;;3.47;;
51636;SDS011;37713;53.254;6.460;2023-02-18T09:57:52;11.07;;;2.80;;
51636;SDS011;37713;53.254;6.460;2023-02-18T10:03:05;13.13;;;2.70;;
51636;SDS011;37713;53.254;6.460;2023-02-18T10:05:36;16.98;;;2.95;;
51636;SDS011;37713;53.254;6.460;2023-02-18T10:08:05;12.82;;;3.00;;
51636;SDS011;37713;53.254;6.460;2023-02-18T10:10:44;14.20;;;3.10;;
51636;SDS011;37713;53.254;6.460;2023-02-18T10:13:13;20.65;;;2.35;;
51636;SDS011;37713;53.254;6.460;2023-02-18T10:15:41;11.27;;;1.98;;
51636;SDS011;37713;53.254;6.460;2023-02-18T10:23:53;18.17;;;3.05;;
51636;SDS011;37713;53.254;6.460;2023-02-18T10:26:24;14.68;;;2.17;;
51636;SDS011;37713;53.254;6.460;2023-02-18T10:28:52;17.83;;;2.80;;
51636;SDS011;37713;53.254;6.460;2023-02-18T10:31:20;14.07;;;2.60;;
51636;SDS011;37713;53.254;6.460;2023-02-18T10:34:06;19.88;;;3.28;;
51636;SDS011;37713;53.254;6.460;2023-02-18T10:36:46;17.48;;;2.70;;
51636;SDS011;37713;53.254;6.460;2023-02-18T10:50:41;14.43;;;3.40;;
51636;SDS011;37713;53.254;6.460;2023-02-18T10:55:49;16.10;;;2.60;;
51636;SDS011;37713;53.254;6.460;2023-02-18T11:01:29;14.23;;;2.40;;
51636;SDS011;37713;53.254;6.460;2023-02-18T11:06:52;9.50;;;2.03;;
51636;SDS011;37713;53.254;6.460;2023-02-18T11:09:24;11.32;;;2.60;;
51636;SDS011;37713;53.254;6.460;2023-02-18T11:11:51;13.02;;;2.42;;
51636;SDS011;37713;53.254;6.460;2023-02-18T11:14:35;19.00;;;2.75;;
51636;SDS011;37713;53.254;6.460;2023-02-18T11:17:14;15.30;;;2.85;;
51636;SDS011;37713;53.254;6.460;2023-02-18T11:19:41;10.88;;;2.33;;
51636;SDS011;37713;53.254;6.460;2023-02-18T11:22:21;11.75;;;2.63;;
51636;SDS011;37713;53.254;6.460;2023-02-18T11:24:56;14.85;;;2.65;;
51636;SDS011;37713;53.254;6.460;2023-02-18T11:29:53;17.52;;;2.40;;
51636;SDS011;37713;53.254;6.460;2023-02-18T11:32:25;11.57;;;2.60;;
51636;SDS011;37713;53.254;6.460;2023-02-18T11:34:53;13.05;;;2.22;;
51636;SDS011;37713;53.254;6.460;2023-02-18T11:37:19;13.70;;;2.63;;
51636;SDS011;37713;53.254;6.460;2023-02-18T11:39:50;14.35;;;2.75;;
51636;SDS011;37713;53.254;6.460;2023-02-18T11:42:19;14.15;;;2.88;;
51636;SDS011;37713;53.254;6.460;2023-02-18T11:44:48;13.40;;;2.42;;
51636;SDS011;37713;53.254;6.460;2023-02-18T11:47:25;13.75;;;2.63;;
51636;SDS011;37713;53.254;6.460;2023-02-18T11:52:34;15.05;;;2.85;;
51636;SDS011;37713;53.254;6.460;2023-02-18T11:57:43;13.23;;;3.28;;
51636;SDS011;37713;53.254;6.460;2023-02-18T12:02:49;17.15;;;2.67;;
51636;SDS011;37713;53.254;6.460;2023-02-18T12:05:21;11.85;;;2.55;;
51636;SDS011;37713;53.254;6.460;2023-02-18T12:10:25;13.98;;;2.30;;
51636;SDS011;37713;53.254;6.460;2023-02-18T12:13:25;12.10;;;2.60;;
51636;SDS011;37713;53.254;6.460;2023-02-18T12:38:12;13.18;;;2.00;;
51636;SDS011;37713;53.254;6.460;2023-02-18T12:43:46;15.43;;;3.08;;
51636;SDS011;37713;53.254;6.460;2023-02-18T12:49:20;13.43;;;2.47;;
51636;SDS011;37713;53.254;6.460;2023-02-18T13:09:24;12.85;;;2.40;;
51636;SDS011;37713;53.254;6.460;2023-02-18T13:14:44;11.25;;;1.95;;
51636;SDS011;37713;53.254;6.460;2023-02-18T13:22:16;13.75;;;2.22;;
51636;SDS011;37713;53.254;6.460;2023-02-18T13:24:45;14.63;;;2.53;;
51636;SDS011;37713;53.254;6.460;2023-02-18T13:27:15;13.30;;;2.30;;
51636;SDS011;37713;53.254;6.460;2023-02-18T13:30:08;17.10;;;3.38;;
51636;SDS011;37713;53.254;6.460;2023-02-18T13:32:49;11.18;;;1.90;;
51636;SDS011;37713;53.254;6.460;2023-02-18T13:35:28;21.00;;;3.30;;
51636;SDS011;37713;53.254;6.460;2023-02-18T13:40:50;12.40;;;2.72;;
51636;SDS011;37713;53.254;6.460;2023-02-18T13:48:45;14.57;;;1.95;;
51636;SDS011;37713;53.254;6.460;2023-02-18T13:51:12;16.98;;;3.25;;
51636;SDS011;37713;53.254;6.460;2023-02-18T13:53:53;12.88;;;2.25;;
51636;SDS011;37713;53.254;6.460;2023-02-18T13:56:30;14.45;;;2.60;;
51636;SDS011;37713;53.254;6.460;2023-02-18T14:01:38;13.50;;;2.53;;
51636;SDS011;37713;53.254;6.460;2023-02-18T14:09:53;21.15;;;2.72;;
51636;SDS011;37713;53.254;6.460;2023-02-18T14:17:42;15.77;;;2.70;;
51636;SDS011;37713;53.254;6.460;2023-02-18T14:23:10;17.48;;;3.33;;
51636;SDS011;37713;53.254;6.460;2023-02-18T14:25:47;14.05;;;2.30;;
51636;SDS011;37713;53.254;6.460;2023-02-18T14:33:41;15.02;;;2.15;;
51636;SDS011;37713;53.254;6.460;2023-02-18T14:38:57;12.20;;;2.45;;
51636;SDS011;37713;53.254;6.460;2023-02-18T14:49:54;15.00;;;2.70;;
51636;SDS011;37713;53.254;6.460;2023-02-18T14:54:57;17.02;;;2.53;;
51636;SDS011;37713;53.254;6.460;2023-02-18T14:57:45;16.02;;;3.00;;
51636;SDS011;37713;53.254;6.460;2023-02-18T15:00:20;18.98;;;2.85;;
51636;SDS011;37713;53.254;6.460;2023-02-18T15:02:53;22.30;;;3.35;;
51636;SDS011;37713;53.254;6.460;2023-02-18T15:05:23;17.35;;;2.67;;
51636;SDS011;37713;53.254;6.460;2023-02-18T15:07:54;13.73;;;2.90;;
51636;SDS011;37713;53.254;6.460;2023-02-18T15:10:20;21.50;;;3.28;;
51636;SDS011;37713;53.254;6.460;2023-02-18T15:12:46;14.82;;;2.90;;
51636;SDS011;37713;53.254;6.460;2023-02-18T15:15:12;19.17;;;3.10;;
51636;SDS011;37713;53.254;6.460;2023-02-18T15:17:43;18.10;;;2.78;;
51636;SDS011;37713;53.254;6.460;2023-02-18T15:20:12;17.13;;;2.95;;
51636;SDS011;37713;53.254;6.460;2023-02-18T15:22:39;22.77;;;3.58;;
51636;SDS011;37713;53.254;6.460;2023-02-18T15:25:05;17.00;;;2.60;;
51636;SDS011;37713;53.254;6.460;2023-02-18T15:27:36;19.60;;;3.40;;
51636;SDS011;37713;53.254;6.460;2023-02-18T15:32:50;19.55;;;3.25;;
51636;SDS011;37713;53.254;6.460;2023-02-18T15:35:18;21.55;;;3.05;;
51636;SDS011;37713;53.254;6.460;2023-02-18T15:37:50;20.27;;;3.35;;
51636;SDS011;37713;53.254;6.460;2023-02-18T15:40:18;18.15;;;2.90;;
51636;SDS011;37713;53.254;6.460;2023-02-18T15:42:48;22.10;;;3.65;;
51636;SDS011;37713;53.254;6.460;2023-02-18T15:45:19;20.88;;;3.30;;
51636;SDS011;37713;53.254;6.460;2023-02-18T15:47:49;20.08;;;3.33;;
51636;SDS011;37713;53.254;6.460;2023-02-18T15:50:21;14.95;;;3.17;;
51636;SDS011;37713;53.254;6.460;2023-02-18T15:52:57;18.63;;;2.60;;
51636;SDS011;37713;53.254;6.460;2023-02-18T15:55:32;17.33;;;2.85;;
51636;SDS011;37713;53.254;6.460;2023-02-18T15:58:03;21.67;;;3.08;;
51636;SDS011;37713;53.254;6.460;2023-02-18T16:00:40;19.10;;;2.97;;
51636;SDS011;37713;53.254;6.460;2023-02-18T16:03:14;19.27;;;2.70;;
51636;SDS011;37713;53.254;6.460;2023-02-18T16:05:44;19.65;;;2.90;;
51636;SDS011;37713;53.254;6.460;2023-02-18T16:08:22;21.05;;;2.75;;
51636;SDS011;37713;53.254;6.460;2023-02-18T16:10:59;17.52;;;2.80;;
51636;SDS011;37713;53.254;6.460;2023-02-18T16:13:43;17.33;;;2.75;;
51636;SDS011;37713;53.254;6.460;2023-02-18T16:16:45;18.05;;;2.95;;
51636;SDS011;37713;53.254;6.460;2023-02-18T16:19:04;17.65;;;3.13;;
51636;SDS011;37713;53.254;6.460;2023-02-18T16:21:37;26.65;;;3.65;;
51636;SDS011;37713;53.254;6.460;2023-02-18T16:24:27;17.92;;;3.03;;
51636;SDS011;37713;53.254;6.460;2023-02-18T16:26:57;18.80;;;2.95;;
51636;SDS011;37713;53.254;6.460;2023-02-18T16:29:25;17.08;;;2.80;;
51636;SDS011;37713;53.254;6.460;2023-02-18T16:32:04;17.90;;;5.13;;
51636;SDS011;37713;53.254;6.460;2023-02-18T16:34:30;22.83;;;4.47;;
51636;SDS011;37713;53.254;6.460;2023-02-18T16:36:55;21.23;;;3.40;;
51636;SDS011;37713;53.254;6.460;2023-02-18T16:39:40;24.65;;;5.47;;
51636;SDS011;37713;53.254;6.460;2023-02-18T16:42:09;15.80;;;3.20;;
51636;SDS011;37713;53.254;6.460;2023-02-18T16:44:36;17.27;;;3.55;;
51636;SDS011;37713;53.254;6.460;2023-02-18T16:47:02;24.30;;;3.10;;
51636;SDS011;37713;53.254;6.460;2023-02-18T16:49:27;19.48;;;3.30;;
51636;SDS011;37713;53.254;6.460;2023-02-18T16:51:54;23.65;;;3.88;;
51636;SDS011;37713;53.254;6.460;2023-02-18T16:54:20;19.10;;;3.13;;
51636;SDS011;37713;53.254;6.460;2023-02-18T16:56:47;14.43;;;3.03;;
51636;SDS011;37713;53.254;6.460;2023-02-18T16:59:13;21.83;;;3.70;;
51636;SDS011;37713;53.254;6.460;2023-02-18T17:01:43;18.15;;;3.83;;
51636;SDS011;37713;53.254;6.460;2023-02-18T17:04:10;17.27;;;3.38;;
51636;SDS011;37713;53.254;6.460;2023-02-18T17:06:38;21.33;;;3.38;;
51636;SDS011;37713;53.254;6.460;2023-02-18T17:09:08;20.02;;;3.50;;
51636;SDS011;37713;53.254;6.460;2023-02-18T17:11:41;20.02;;;3.63;;
51636;SDS011;37713;53.254;6.460;2023-02-18T17:14:11;18.63;;;3.95;;
51636;SDS011;37713;53.254;6.460;2023-02-18T17:16:39;23.58;;;3.45;;
51636;SDS011;37713;53.254;6.460;2023-02-18T17:19:05;21.25;;;3.83;;
51636;SDS011;37713;53.254;6.460;2023-02-18T17:21:30;20.77;;;3.97;;
51636;SDS011;37713;53.254;6.460;2023-02-18T17:23:56;23.25;;;4.85;;
51636;SDS011;37713;53.254;6.460;2023-02-18T17:26:23;20.95;;;3.42;;
51636;SDS011;37713;53.254;6.460;2023-02-18T17:28:55;23.33;;;3.07;;
51636;SDS011;37713;53.254;6.460;2023-02-18T17:31:23;17.02;;;3.25;;
51636;SDS011;37713;53.254;6.460;2023-02-18T17:33:53;22.50;;;3.05;;
51636;SDS011;37713;53.254;6.460;2023-02-18T17:36:19;19.88;;;3.67;;
51636;SDS011;37713;53.254;6.460;2023-02-18T17:38:45;18.08;;;3.05;;
51636;SDS011;37713;53.254;6.460;2023-02-18T17:41:11;25.88;;;3.63;;
51636;SDS011;37713;53.254;6.460;2023-02-18T17:43:38;20.42;;;3.03;;
51636;SDS011;37713;53.254;6.460;2023-02-18T17:46:04;19.00;;;3.55;;
51636;SDS011;37713;53.254;6.460;2023-02-18T17:48:30;20.50;;;3.20;;
51636;SDS011;37713;53.254;6.460;2023-02-18T17:50:56;22.23;;;4.50;;
51636;SDS011;37713;53.254;6.460;2023-02-18T17:53:22;25.23;;;4.18;;
51636;SDS011;37713;53.254;6.460;2023-02-18T17:55:48;25.17;;;4.20;;
51636;SDS011;37713;53.254;6.460;2023-02-18T17:58:15;22.75;;;3.42;;